createdAt,value
2016-06-06T08:40:09.230Z,1017.43
2016-06-06T08:40:19.214Z,1017.4
2016-06-06T08:40:29.214Z,1017.46
2016-06-06T08:40:39.214Z,1017.45
2016-06-06T08:40:49.199Z,1017.42
2016-06-06T08:40:59.199Z,1017.39
2016-06-06T08:41:09.202Z,1017.44
2016-06-06T08:41:19.202Z,1017.43
2016-06-06T08:41:29.186Z,1017.44
2016-06-06T08:41:39.170Z,1017.41
2016-06-06T08:41:49.186Z,1017.46
2016-06-06T08:41:59.170Z,1017.43
2016-06-06T08:42:09.173Z,1017.44
2016-06-06T08:42:19.158Z,1017.47
2016-06-06T08:42:29.158Z,1017.44
2016-06-06T08:42:39.142Z,1017.5
2016-06-06T08:42:49.002Z,1017.46
2016-06-06T08:42:59.142Z,1017.48
2016-06-06T08:43:09.145Z,1017.46
2016-06-06T08:43:19.130Z,1017.5
2016-06-06T08:43:29.145Z,1017.46
2016-06-06T08:43:39.583Z,1017.45
2016-06-06T08:43:50.051Z,1017.46
2016-06-06T08:43:59.989Z,1017.48
2016-06-06T08:44:09.116Z,1017.48
2016-06-06T08:44:19.288Z,1017.48
2016-06-06T08:44:29.272Z,1017.5
2016-06-06T08:44:40.007Z,1017.48
2016-06-06T08:44:49.241Z,1017.42
2016-06-06T08:44:58.944Z,1017.46
2016-06-06T08:45:09.103Z,1017.49
2016-06-06T08:45:19.088Z,1017.46
2016-06-06T08:45:29.088Z,1017.5
2016-06-06T08:45:38.775Z,1017.43
2016-06-06T08:45:49.072Z,1017.47
2016-06-06T08:45:59.072Z,1017.48
2016-06-06T08:46:08.902Z,1017.49
2016-06-06T08:46:19.043Z,1017.5
2016-06-06T08:46:29.043Z,1017.53
2016-06-06T08:46:39.043Z,1017.51
2016-06-06T08:46:48.887Z,1017.54
2016-06-06T08:46:59.043Z,1017.5
2016-06-06T08:47:09.030Z,1017.46
2016-06-06T08:47:19.046Z,1017.42
2016-06-06T08:47:29.030Z,1017.54
2016-06-06T08:47:38.874Z,1017.47
2016-06-06T08:47:49.015Z,1017.46
2016-06-06T08:47:58.999Z,1017.48
2016-06-06T08:48:09.018Z,1017.47
2016-06-06T08:48:19.018Z,1017.5
2016-06-06T08:48:29.002Z,1017.49
2016-06-06T08:48:39.002Z,1017.48
2016-06-06T08:48:48.986Z,1017.54
2016-06-06T08:48:58.986Z,1017.5
2016-06-06T08:49:08.974Z,1017.55
2016-06-06T08:49:18.974Z,1017.53
2016-06-06T08:49:28.974Z,1017.51
2016-06-06T08:49:38.974Z,1017.51
2016-06-06T08:49:48.958Z,1017.5
2016-06-06T08:49:58.958Z,1017.49
2016-06-06T08:50:08.960Z,1017.51
2016-06-06T08:50:18.944Z,1017.54
2016-06-06T08:50:28.944Z,1017.48
2016-06-06T08:50:38.944Z,1017.53
2016-06-06T08:50:48.944Z,1017.51
2016-06-06T08:50:58.929Z,1017.51
2016-06-06T08:51:08.932Z,1017.48
2016-06-06T08:51:18.916Z,1017.54
2016-06-06T08:51:28.932Z,1017.52
2016-06-06T08:51:38.916Z,1017.48
2016-06-06T08:51:48.916Z,1017.51
2016-06-06T08:51:58.901Z,1017.52
2016-06-06T08:52:08.904Z,1017.54
2016-06-06T08:52:18.904Z,1017.53
2016-06-06T08:52:28.747Z,1017.54
2016-06-06T08:52:38.888Z,1017.51
2016-06-06T08:52:48.888Z,1017.5
2016-06-06T08:52:58.872Z,1017.53
2016-06-06T08:53:08.874Z,1017.55
2016-06-06T08:53:18.874Z,1017.54
2016-06-06T08:53:28.874Z,1017.6
2016-06-06T08:53:38.859Z,1017.53
2016-06-06T08:53:48.859Z,1017.54
2016-06-06T08:53:58.859Z,1017.49
2016-06-06T08:54:08.862Z,1017.52
2016-06-06T08:54:18.846Z,1017.51
2016-06-06T08:54:28.846Z,1017.51
2016-06-06T08:54:38.830Z,1017.5
2016-06-06T08:54:48.846Z,1017.53
2016-06-06T08:54:58.830Z,1017.58
2016-06-06T08:55:08.818Z,1017.55
2016-06-06T08:55:18.833Z,1017.57
2016-06-06T08:55:28.818Z,1017.55
2016-06-06T08:55:38.802Z,1017.55
2016-06-06T08:55:48.802Z,1017.56
2016-06-06T08:55:58.818Z,1017.59
2016-06-06T08:56:08.789Z,1017.57
2016-06-06T08:56:18.804Z,1017.6
2016-06-06T08:56:28.789Z,1017.57
2016-06-06T08:56:38.773Z,1017.55
2016-06-06T08:56:48.773Z,1017.55
2016-06-06T08:56:58.773Z,1017.55
2016-06-06T08:57:08.776Z,1017.54
2016-06-06T08:57:18.776Z,1017.55
2016-06-06T08:57:28.760Z,1017.55
2016-06-06T08:57:38.760Z,1017.57
2016-06-06T08:57:48.760Z,1017.58
2016-06-06T08:57:58.745Z,1017.56
2016-06-06T08:58:08.747Z,1017.54
2016-06-06T08:58:18.747Z,1017.56
2016-06-06T08:58:28.731Z,1017.52
2016-06-06T08:58:38.919Z,1017.57
2016-06-06T08:58:48.575Z,1017.59
2016-06-06T08:58:58.653Z,1017.57
2016-06-06T08:59:08.735Z,1017.52
2016-06-06T08:59:18.782Z,1017.53
2016-06-06T08:59:28.673Z,1017.5
2016-06-06T08:59:38.626Z,1017.55
2016-06-06T08:59:49.344Z,1017.51
2016-06-06T08:59:59.048Z,1017.52
2016-06-06T09:00:09.034Z,1017.52
2016-06-06T09:00:18.706Z,1017.56
2016-06-06T09:00:28.690Z,1017.51
2016-06-06T09:00:38.690Z,1017.56
2016-06-06T09:00:48.675Z,1017.53
2016-06-06T09:00:58.675Z,1017.55
2016-06-06T09:01:08.678Z,1017.58
2016-06-06T09:01:18.506Z,1017.55
2016-06-06T09:01:28.646Z,1017.53
2016-06-06T09:01:38.646Z,1017.54
2016-06-06T09:01:48.662Z,1017.56
2016-06-06T09:01:58.646Z,1017.55
2016-06-06T09:02:08.634Z,1017.54
2016-06-06T09:02:18.634Z,1017.52
2016-06-06T09:02:28.634Z,1017.53
2016-06-06T09:02:38.618Z,1017.55
2016-06-06T09:02:48.618Z,1017.57
2016-06-06T09:02:58.462Z,1017.52
2016-06-06T09:03:08.604Z,1017.53
2016-06-06T09:03:18.604Z,1017.56
2016-06-06T09:03:28.604Z,1017.54
2016-06-06T09:03:38.604Z,1017.53
2016-06-06T09:03:48.589Z,1017.55
2016-06-06T09:03:58.589Z,1017.57
2016-06-06T09:04:08.592Z,1017.53
2016-06-06T09:04:18.592Z,1017.54
2016-06-06T09:04:28.576Z,1017.53
2016-06-06T09:04:38.576Z,1017.52
2016-06-06T09:04:48.576Z,1017.51
2016-06-06T09:04:58.404Z,1017.53
2016-06-06T09:05:08.564Z,1017.56
2016-06-06T09:05:18.564Z,1017.51
2016-06-06T09:05:28.548Z,1017.55
2016-06-06T09:05:38.548Z,1017.54
2016-06-06T09:05:48.548Z,1017.56
2016-06-06T09:05:58.532Z,1017.53
2016-06-06T09:06:08.534Z,1017.51
2016-06-06T09:06:18.534Z,1017.59
2016-06-06T09:06:28.534Z,1017.55
2016-06-06T09:06:38.519Z,1017.54
2016-06-06T09:06:48.519Z,1017.52
2016-06-06T09:06:58.503Z,1017.6
2016-06-06T09:07:08.506Z,1017.58
2016-06-06T09:07:18.506Z,1017.57
2016-06-06T09:07:28.490Z,1017.6
2016-06-06T09:07:38.490Z,1017.57
2016-06-06T09:07:48.334Z,1017.62
2016-06-06T09:07:58.475Z,1017.59
2016-06-06T09:08:08.336Z,1017.59
2016-06-06T09:08:18.477Z,1017.59
2016-06-06T09:08:28.461Z,1017.56
2016-06-06T09:08:38.477Z,1017.55
2016-06-06T09:08:48.305Z,1017.57
2016-06-06T09:08:58.305Z,1017.58
2016-06-06T09:09:08.450Z,1017.59
2016-06-06T09:09:18.496Z,1017.62
2016-06-06T09:09:28.450Z,1017.61
2016-06-06T09:09:38.450Z,1017.6
2016-06-06T09:09:48.434Z,1017.54
2016-06-06T09:09:58.434Z,1017.56
2016-06-06T09:10:08.436Z,1017.57
2016-06-06T09:10:18.420Z,1017.56
2016-06-06T09:10:28.420Z,1017.58
2016-06-06T09:10:38.436Z,1017.57
2016-06-06T09:10:48.405Z,1017.5
2016-06-06T09:10:58.405Z,1017.53
2016-06-06T09:11:08.408Z,1017.52
2016-06-06T09:11:18.392Z,1017.47
2016-06-06T09:11:28.392Z,1017.52
2016-06-06T09:11:38.392Z,1017.52
2016-06-06T09:11:48.392Z,1017.51
2016-06-06T09:11:58.376Z,1017.54
2016-06-06T09:12:08.395Z,1017.52
2016-06-06T09:12:18.379Z,1017.57
2016-06-06T09:12:28.364Z,1017.57
2016-06-06T09:12:38.364Z,1017.57
2016-06-06T09:12:48.364Z,1017.56
2016-06-06T09:12:58.364Z,1017.56
2016-06-06T09:13:08.381Z,1017.55
2016-06-06T09:13:18.350Z,1017.52
2016-06-06T09:13:28.350Z,1017.53
2016-06-06T09:13:38.350Z,1017.58
2016-06-06T09:13:48.335Z,1017.56
2016-06-06T09:13:58.319Z,1017.61
2016-06-06T09:14:08.931Z,1017.54
2016-06-06T09:14:18.259Z,1017.57
2016-06-06T09:14:28.322Z,1017.57
2016-06-06T09:14:38.322Z,1017.59
2016-06-06T09:14:48.306Z,1017.52
2016-06-06T09:14:59.072Z,1017.58
2016-06-06T09:15:08.293Z,1017.56
2016-06-06T09:15:18.308Z,1017.59
2016-06-06T09:15:28.293Z,1017.53
2016-06-06T09:15:38.277Z,1017.53
2016-06-06T09:15:48.293Z,1017.5
2016-06-06T09:15:58.277Z,1017.47
2016-06-06T09:16:08.296Z,1017.52
2016-06-06T09:16:18.280Z,1017.55
2016-06-06T09:16:28.264Z,1017.54
2016-06-06T09:16:38.264Z,1017.56
2016-06-06T09:16:48.264Z,1017.61
2016-06-06T09:16:58.264Z,1017.58
2016-06-06T09:17:08.252Z,1017.61
2016-06-06T09:17:18.252Z,1017.57
2016-06-06T09:17:28.236Z,1017.53
2016-06-06T09:17:38.252Z,1017.58
2016-06-06T09:17:48.236Z,1017.6
2016-06-06T09:17:58.236Z,1017.59
2016-06-06T09:18:08.083Z,1017.62
2016-06-06T09:18:18.239Z,1017.62
2016-06-06T09:18:28.099Z,1017.68
2016-06-06T09:18:38.224Z,1017.65
2016-06-06T09:18:48.208Z,1017.63
2016-06-06T09:18:58.208Z,1017.57
2016-06-06T09:19:08.194Z,1017.6
2016-06-06T09:19:18.194Z,1017.59
2016-06-06T09:19:28.194Z,1017.64
2016-06-06T09:19:38.179Z,1017.64
2016-06-06T09:19:48.179Z,1017.68
2016-06-06T09:19:58.179Z,1017.65
2016-06-06T09:20:08.182Z,1017.74
2016-06-06T09:20:18.025Z,1017.78
2016-06-06T09:20:28.166Z,1017.75
2016-06-06T09:20:38.150Z,1017.65
2016-06-06T09:20:48.150Z,1017.63
2016-06-06T09:20:57.994Z,1017.55
2016-06-06T09:21:08.169Z,1017.58
2016-06-06T09:21:18.153Z,1017.58
2016-06-06T09:21:28.028Z,1017.58
2016-06-06T09:21:38.138Z,1017.61
2016-06-06T09:21:48.138Z,1017.68
2016-06-06T09:21:58.138Z,1017.75
2016-06-06T09:22:08.124Z,1017.64
2016-06-06T09:22:18.124Z,1017.72
2016-06-06T09:22:28.124Z,1017.7
2016-06-06T09:22:38.109Z,1017.66
2016-06-06T09:22:48.109Z,1017.64
2016-06-06T09:22:58.109Z,1017.65
2016-06-06T09:23:08.096Z,1017.71
2016-06-06T09:23:18.096Z,1017.64
2016-06-06T09:23:28.080Z,1017.68
2016-06-06T09:23:38.080Z,1017.72
2016-06-06T09:23:48.080Z,1017.84
2016-06-06T09:23:58.080Z,1017.84
2016-06-06T09:24:08.068Z,1017.84
2016-06-06T09:24:18.083Z,1018.19
2016-06-06T09:24:28.068Z,1018.12
2016-06-06T09:24:38.068Z,1017.97
2016-06-06T09:24:48.068Z,1018.18
2016-06-06T09:24:57.896Z,1018.19
2016-06-06T09:25:08.054Z,1017.9
2016-06-06T09:25:18.054Z,1017.88
2016-06-06T09:25:28.038Z,1017.9
2016-06-06T09:25:38.023Z,1017.82
2016-06-06T09:25:48.023Z,1017.86
2016-06-06T09:25:58.023Z,1017.91
2016-06-06T09:26:08.041Z,1017.78
2016-06-06T09:26:18.026Z,1017.87
2016-06-06T09:26:28.010Z,1017.89
2016-06-06T09:26:38.026Z,1017.83
2016-06-06T09:26:48.010Z,1017.81
2016-06-06T09:26:58.010Z,1017.86
2016-06-06T09:27:07.998Z,1017.95
2016-06-06T09:27:17.998Z,1018.09
2016-06-06T09:27:28.013Z,1018.02
2016-06-06T09:27:37.998Z,1017.86
2016-06-06T09:27:47.982Z,1017.9
2016-06-06T09:27:57.982Z,1017.8
2016-06-06T09:28:07.969Z,1017.93
2016-06-06T09:28:17.985Z,1018.07
2016-06-06T09:28:27.969Z,1018.15
2016-06-06T09:28:37.969Z,1018.03
2016-06-06T09:28:47.719Z,1017.65
2016-06-06T09:28:57.797Z,1017.61
2016-06-06T09:29:07.799Z,1017.6
2016-06-06T09:29:18.393Z,1017.58
2016-06-06T09:29:27.784Z,1017.63
2016-06-06T09:29:38.081Z,1017.63
2016-06-06T09:29:47.924Z,1017.64
2016-06-06T09:29:58.549Z,1017.65
2016-06-06T09:30:07.943Z,1017.66
2016-06-06T09:30:17.912Z,1017.64
2016-06-06T09:30:27.927Z,1017.67
2016-06-06T09:30:37.912Z,1017.69
2016-06-06T09:30:47.912Z,1017.77
2016-06-06T09:30:57.896Z,1017.88
2016-06-06T09:31:07.898Z,1017.87
2016-06-06T09:31:17.914Z,1017.97
2016-06-06T09:31:27.883Z,1017.87
2016-06-06T09:31:37.883Z,1017.94
2016-06-06T09:31:47.867Z,1018.21
2016-06-06T09:31:57.883Z,1017.94
2016-06-06T09:32:07.870Z,1017.79
2016-06-06T09:32:17.714Z,1017.9
2016-06-06T09:32:27.870Z,1017.99
2016-06-06T09:32:37.854Z,1018.01
2016-06-06T09:32:47.854Z,1017.95
2016-06-06T09:32:57.839Z,1017.9
2016-06-06T09:33:07.826Z,1017.82
2016-06-06T09:33:17.842Z,1017.8
2016-06-06T09:33:27.826Z,1017.93
2016-06-06T09:33:37.810Z,1018.11
2016-06-06T09:33:47.810Z,1018.01
2016-06-06T09:33:57.826Z,1018.24
2016-06-06T09:34:07.657Z,1018.1
2016-06-06T09:34:17.813Z,1018.04
2016-06-06T09:34:27.798Z,1017.99
2016-06-06T09:34:37.813Z,1018.01
2016-06-06T09:34:47.798Z,1018.08
2016-06-06T09:34:57.782Z,1017.98
2016-06-06T09:35:07.629Z,1018.05
2016-06-06T09:35:17.785Z,1017.89
2016-06-06T09:35:27.770Z,1018.05
2016-06-06T09:35:37.770Z,1018.25
2016-06-06T09:35:47.613Z,1018.24
2016-06-06T09:35:57.770Z,1018.09
2016-06-06T09:36:07.772Z,1018.19
2016-06-06T09:36:17.772Z,1018.12
2016-06-06T09:36:27.740Z,1018
2016-06-06T09:36:37.740Z,1018.4
2016-06-06T09:36:47.756Z,1018.35
2016-06-06T09:36:57.584Z,1018.24
2016-06-06T09:37:07.728Z,1017.97
2016-06-06T09:37:17.743Z,1017.8
2016-06-06T09:37:27.728Z,1017.81
2016-06-06T09:37:37.728Z,1018.06
2016-06-06T09:37:47.712Z,1018.25
2016-06-06T09:37:57.712Z,1018.07
2016-06-06T09:38:07.714Z,1017.89
2016-06-06T09:38:17.698Z,1017.92
2016-06-06T09:38:27.542Z,1018.22
2016-06-06T09:38:37.698Z,1018.12
2016-06-06T09:38:47.698Z,1017.98
2016-06-06T09:38:57.683Z,1018.22
2016-06-06T09:39:07.686Z,1018.31
2016-06-06T09:39:17.686Z,1018.23
2016-06-06T09:39:27.686Z,1018.06
2016-06-06T09:39:37.701Z,1018.12
2016-06-06T09:39:47.514Z,1017.97
2016-06-06T09:39:57.670Z,1018.25
2016-06-06T09:40:07.673Z,1018.24
2016-06-06T09:40:17.673Z,1018.2
2016-06-06T09:40:27.501Z,1018.16
2016-06-06T09:40:37.673Z,1018.12
2016-06-06T09:40:47.642Z,1018.16
2016-06-06T09:40:57.642Z,1018.17
2016-06-06T09:41:07.661Z,1018.17
2016-06-06T09:41:17.645Z,1018.18
2016-06-06T09:41:27.629Z,1018.21
2016-06-06T09:41:37.629Z,1018.21
2016-06-06T09:41:47.629Z,1018.21
2016-06-06T09:41:57.629Z,1018.24
2016-06-06T09:42:07.616Z,1018.23
2016-06-06T09:42:17.616Z,1018.23
2016-06-06T09:42:27.616Z,1018.21
2016-06-06T09:42:37.600Z,1018.23
2016-06-06T09:42:47.616Z,1018.21
2016-06-06T09:42:57.600Z,1018.19
2016-06-06T09:43:07.603Z,1018.19
2016-06-06T09:43:17.603Z,1018.12
2016-06-06T09:43:27.603Z,1018.05
2016-06-06T09:43:37.572Z,1018.05
2016-06-06T09:43:48.462Z,1018.01
2016-06-06T09:43:57.994Z,1017.87
2016-06-06T09:44:07.574Z,1018.1
2016-06-06T09:44:17.761Z,1017.89
2016-06-06T09:44:27.996Z,1018.12
2016-06-06T09:44:37.574Z,1018.08
2016-06-06T09:44:47.652Z,1018.16
2016-06-06T09:44:57.449Z,1018.01
2016-06-06T09:45:07.547Z,1018.14
2016-06-06T09:45:17.562Z,1018.17
2016-06-06T09:45:27.390Z,1018.15
2016-06-06T09:45:37.390Z,1018.17
2016-06-06T09:45:47.531Z,1018.2
2016-06-06T09:45:57.390Z,1018.16
2016-06-06T09:46:07.377Z,1018.16
2016-06-06T09:46:17.533Z,1017.98
2016-06-06T09:46:27.533Z,1018.05
2016-06-06T09:46:37.517Z,1018.13
2016-06-06T09:46:47.502Z,1018.08
2016-06-06T09:46:57.517Z,1017.99
2016-06-06T09:47:07.505Z,1018.01
2016-06-06T09:47:17.505Z,1017.92
2016-06-06T09:47:27.489Z,1017.92
2016-06-06T09:47:37.489Z,1018.03
2016-06-06T09:47:47.489Z,1018.03
2016-06-06T09:47:57.489Z,1018.11
2016-06-06T09:48:07.491Z,1018
2016-06-06T09:48:17.491Z,1018.1
2016-06-06T09:48:27.475Z,1018.05
2016-06-06T09:48:37.319Z,1018.13
2016-06-06T09:48:47.475Z,1018.1
2016-06-06T09:48:57.460Z,1018.11
2016-06-06T09:49:07.463Z,1018.07
2016-06-06T09:49:17.463Z,1018.07
2016-06-06T09:49:27.447Z,1018.07
2016-06-06T09:49:37.463Z,1018.06
2016-06-06T09:49:47.447Z,1018.1
2016-06-06T09:49:57.447Z,1018.09
2016-06-06T09:50:07.449Z,1018.05
2016-06-06T09:50:17.434Z,1018.14
2016-06-06T09:50:27.434Z,1018.12
2016-06-06T09:50:37.434Z,1018.12
2016-06-06T09:50:47.418Z,1018.12
2016-06-06T09:50:57.418Z,1018.14
2016-06-06T09:51:07.421Z,1018.11
2016-06-06T09:51:17.421Z,1018.12
2016-06-06T09:51:27.421Z,1018.11
2016-06-06T09:51:37.421Z,1018.08
2016-06-06T09:51:47.405Z,1018.08
2016-06-06T09:51:56.655Z,1018.1
2016-06-06T09:52:07.408Z,1018.14
2016-06-06T09:52:17.393Z,1018.16
2016-06-06T09:52:27.393Z,1018.17
2016-06-06T09:52:37.408Z,1018.14
2016-06-06T09:52:47.377Z,1018.13
2016-06-06T09:52:57.377Z,1018.12
2016-06-06T09:53:07.380Z,1018.1
2016-06-06T09:53:17.443Z,1018.13
2016-06-06T09:53:27.380Z,1018.1
2016-06-06T09:53:37.364Z,1018.12
2016-06-06T09:53:47.364Z,1018.09
2016-06-06T09:53:57.364Z,1018.13
2016-06-06T09:54:07.352Z,1018.1
2016-06-06T09:54:17.367Z,1018.1
2016-06-06T09:54:27.367Z,1018.1
2016-06-06T09:54:37.196Z,1018.1
2016-06-06T09:54:47.336Z,1018.09
2016-06-06T09:54:57.352Z,1018.14
2016-06-06T09:55:07.338Z,1018.1
2016-06-06T09:55:17.369Z,1018.17
2016-06-06T09:55:27.338Z,1018.18
2016-06-06T09:55:37.323Z,1018.15
2016-06-06T09:55:47.323Z,1018.13
2016-06-06T09:55:57.323Z,1018.11
2016-06-06T09:56:07.326Z,1018.14
2016-06-06T09:56:17.310Z,1018.12
2016-06-06T09:56:27.310Z,1018.08
2016-06-06T09:56:37.310Z,1018.08
2016-06-06T09:56:47.294Z,1018.07
2016-06-06T09:56:57.294Z,1018.07
2016-06-06T09:57:07.297Z,1018.14
2016-06-06T09:57:17.297Z,1018.14
2016-06-06T09:57:27.297Z,1018.09
2016-06-06T09:57:37.282Z,1018.1
2016-06-06T09:57:47.282Z,1018.09
2016-06-06T09:57:57.297Z,1018.04
2016-06-06T09:58:07.284Z,1018.1
2016-06-06T09:58:17.112Z,1018.17
2016-06-06T09:58:27.268Z,1018.19
2016-06-06T09:58:37.127Z,1018.11
2016-06-06T09:58:47.831Z,1018.12
2016-06-06T09:58:57.674Z,1018.06
2016-06-06T09:59:07.255Z,1018.04
2016-06-06T09:59:17.740Z,1018.11
2016-06-06T09:59:27.318Z,1018.08
2016-06-06T09:59:37.255Z,1018.17
2016-06-06T09:59:47.990Z,1018.13
2016-06-06T09:59:57.255Z,1018.15
2016-06-06T10:00:07.243Z,1018.09
2016-06-06T10:00:17.243Z,1018.12
2016-06-06T10:00:27.227Z,1018.09
2016-06-06T10:00:37.290Z,1018.11
2016-06-06T10:00:47.227Z,1018.16
2016-06-06T10:00:57.227Z,1018.09
2016-06-06T10:01:07.215Z,1018.08
2016-06-06T10:01:17.215Z,1018.16
2016-06-06T10:01:27.215Z,1018.12
2016-06-06T10:01:37.215Z,1018.12
2016-06-06T10:01:47.199Z,1018.15
2016-06-06T10:01:57.199Z,1018.07
2016-06-06T10:02:07.201Z,1018.14
2016-06-06T10:02:17.201Z,1018.09
2016-06-06T10:02:27.185Z,1018.13
2016-06-06T10:02:37.029Z,1018.12
2016-06-06T10:02:47.201Z,1018.07
2016-06-06T10:02:57.170Z,1018.1
2016-06-06T10:03:07.173Z,1018.15
2016-06-06T10:03:17.188Z,1018.09
2016-06-06T10:03:27.173Z,1018.1
2016-06-06T10:03:37.157Z,1018.1
2016-06-06T10:03:47.173Z,1018.08
2016-06-06T10:03:57.157Z,1018.05
2016-06-06T10:04:07.159Z,1018.12
2016-06-06T10:04:17.159Z,1018.12
2016-06-06T10:04:27.143Z,1018.09
2016-06-06T10:04:37.143Z,1018.1
2016-06-06T10:04:47.159Z,1018.07
2016-06-06T10:04:57.143Z,1018.12
2016-06-06T10:05:07.146Z,1018.12
2016-06-06T10:05:17.131Z,1018.16
2016-06-06T10:05:27.131Z,1018.1
2016-06-06T10:05:37.131Z,1018.18
2016-06-06T10:05:47.115Z,1018.17
2016-06-06T10:05:57.115Z,1018.13
2016-06-06T10:06:07.118Z,1018.16
2016-06-06T10:06:17.118Z,1018.11
2016-06-06T10:06:27.103Z,1018.12
2016-06-06T10:06:37.103Z,1018.11
2016-06-06T10:06:47.103Z,1018.14
2016-06-06T10:06:57.103Z,1018.05
2016-06-06T10:07:07.090Z,1018.03
2016-06-06T10:07:17.106Z,1018.07
2016-06-06T10:07:26.949Z,1018.04
2016-06-06T10:07:37.121Z,1018.07
2016-06-06T10:07:47.168Z,1018.01
2016-06-06T10:07:56.949Z,1018.02
2016-06-06T10:08:07.092Z,1018.07
2016-06-06T10:08:17.076Z,1018.01
2016-06-06T10:08:27.076Z,1018.01
2016-06-06T10:08:37.061Z,1018.07
2016-06-06T10:08:47.061Z,1018.02
2016-06-06T10:08:57.061Z,1018.08
2016-06-06T10:09:07.064Z,1018.13
2016-06-06T10:09:17.064Z,1018.08
2016-06-06T10:09:27.064Z,1018.1
2016-06-06T10:09:37.048Z,1018.05
2016-06-06T10:09:47.048Z,1018.07
2016-06-06T10:09:57.048Z,1018.07
2016-06-06T10:10:07.050Z,1018.05
2016-06-06T10:10:17.050Z,1018.09
2016-06-06T10:10:27.050Z,1018.07
2016-06-06T10:10:36.878Z,1018.14
2016-06-06T10:10:47.034Z,1018.09
2016-06-06T10:10:57.019Z,1018.1
2016-06-06T10:11:06.882Z,1018.11
2016-06-06T10:11:17.023Z,1018.08
2016-06-06T10:11:27.023Z,1018.15
2016-06-06T10:11:37.023Z,1018.19
2016-06-06T10:11:46.867Z,1018.15
2016-06-06T10:11:57.007Z,1018.14
2016-06-06T10:12:07.025Z,1018.11
2016-06-06T10:12:17.009Z,1018.12
2016-06-06T10:12:27.009Z,1018.1
2016-06-06T10:12:36.837Z,1018.09
2016-06-06T10:12:46.994Z,1018.08
2016-06-06T10:12:56.994Z,1018.04
2016-06-06T10:13:06.996Z,1018.09
2016-06-06T10:13:16.980Z,1018.06
2016-06-06T10:13:26.980Z,1018.11
2016-06-06T10:13:36.980Z,1018.09
2016-06-06T10:13:47.636Z,1018.08
2016-06-06T10:13:57.246Z,1018.1
2016-06-06T10:14:07.156Z,1018.09
2016-06-06T10:14:16.671Z,1018.05
2016-06-06T10:14:27.468Z,1018.04
2016-06-06T10:14:36.859Z,1018.04
2016-06-06T10:14:47.421Z,1018.08
2016-06-06T10:14:57.031Z,1018.07
2016-06-06T10:15:06.970Z,1018.05
2016-06-06T10:15:16.955Z,1018.09
2016-06-06T10:15:26.939Z,1018.08
2016-06-06T10:15:36.939Z,1018.16
2016-06-06T10:15:46.939Z,1018.12
2016-06-06T10:15:56.939Z,1018.07
2016-06-06T10:16:06.942Z,1018.12
2016-06-06T10:16:16.926Z,1018.09
2016-06-06T10:16:26.926Z,1018.1
2016-06-06T10:16:36.911Z,1018.08
2016-06-06T10:16:46.942Z,1018.03
2016-06-06T10:16:56.911Z,1018.05
2016-06-06T10:17:06.913Z,1018.07
2016-06-06T10:17:16.913Z,1017.99
2016-06-06T10:17:26.897Z,1018.01
2016-06-06T10:17:36.897Z,1017.98
2016-06-06T10:17:46.897Z,1018.06
2016-06-06T10:17:56.897Z,1018.08
2016-06-06T10:18:06.900Z,1018.07
2016-06-06T10:18:16.916Z,1018.07
2016-06-06T10:18:26.885Z,1018.11
2016-06-06T10:18:36.885Z,1018.06
2016-06-06T10:18:46.885Z,1018.1
2016-06-06T10:18:56.728Z,1018.05
2016-06-06T10:19:06.888Z,1018.03
2016-06-06T10:19:16.872Z,1018.07
2016-06-06T10:19:26.872Z,1018.1
2016-06-06T10:19:36.872Z,1018.06
2016-06-06T10:19:46.888Z,1018.08
2016-06-06T10:19:56.856Z,1018.08
2016-06-06T10:20:06.859Z,1018.07
2016-06-06T10:20:16.719Z,1018.08
2016-06-06T10:20:26.891Z,1018.04
2016-06-06T10:20:36.844Z,1018.05
2016-06-06T10:20:46.859Z,1018.05
2016-06-06T10:20:56.844Z,1018.06
2016-06-06T10:21:06.846Z,1018.07
2016-06-06T10:21:16.830Z,1018.06
2016-06-06T10:21:26.846Z,1018.01
2016-06-06T10:21:36.674Z,1018.04
2016-06-06T10:21:46.830Z,1018.01
2016-06-06T10:21:56.830Z,1018.01
2016-06-06T10:22:06.817Z,1018.01
2016-06-06T10:22:16.817Z,1017.99
2016-06-06T10:22:26.817Z,1018
2016-06-06T10:22:36.817Z,1018.03
2016-06-06T10:22:46.802Z,1018.03
2016-06-06T10:22:56.646Z,1018.03
2016-06-06T10:23:06.836Z,1018.05
2016-06-06T10:23:16.836Z,1018.04
2016-06-06T10:23:26.805Z,1018.06
2016-06-06T10:23:36.805Z,1017.98
2016-06-06T10:23:46.789Z,1017.99
2016-06-06T10:23:56.820Z,1018.03
2016-06-06T10:24:06.789Z,1018.05
2016-06-06T10:24:16.791Z,1018.09
2016-06-06T10:24:26.776Z,1018.02
2016-06-06T10:24:36.776Z,1018.04
2016-06-06T10:24:46.776Z,1018.02
2016-06-06T10:24:56.776Z,1018.01
2016-06-06T10:25:06.776Z,1018.02
2016-06-06T10:25:16.779Z,1018.05
2016-06-06T10:25:26.763Z,1017.99
2016-06-06T10:25:36.763Z,1017.94
2016-06-06T10:25:46.607Z,1017.98
2016-06-06T10:25:56.763Z,1018.03
2016-06-06T10:26:06.779Z,1018.01
2016-06-06T10:26:16.750Z,1018.03
2016-06-06T10:26:26.750Z,1018.02
2016-06-06T10:26:36.735Z,1017.99
2016-06-06T10:26:46.735Z,1017.98
2016-06-06T10:26:56.735Z,1018.06
2016-06-06T10:27:06.735Z,1018.02
2016-06-06T10:27:16.721Z,1017.98
2016-06-06T10:27:26.721Z,1017.95
2016-06-06T10:27:36.721Z,1017.96
2016-06-06T10:27:46.721Z,1017.9
2016-06-06T10:27:56.721Z,1017.94
2016-06-06T10:28:06.721Z,1017.91
2016-06-06T10:28:16.707Z,1017.94
2016-06-06T10:28:26.707Z,1017.93
2016-06-06T10:28:36.707Z,1017.9
2016-06-06T10:28:46.567Z,1017.89
2016-06-06T10:28:56.629Z,1017.96
2016-06-06T10:29:06.582Z,1017.95
2016-06-06T10:29:17.165Z,1017.96
2016-06-06T10:29:26.899Z,1017.97
2016-06-06T10:29:36.899Z,1017.94
2016-06-06T10:29:47.149Z,1017.95
2016-06-06T10:29:56.540Z,1017.95
2016-06-06T10:30:06.680Z,1017.96
2016-06-06T10:30:16.682Z,1017.95
2016-06-06T10:30:26.667Z,1017.99
2016-06-06T10:30:36.682Z,1017.91
2016-06-06T10:30:46.667Z,1017.86
2016-06-06T10:30:56.667Z,1017.84
2016-06-06T10:31:06.667Z,1017.86
2016-06-06T10:31:16.670Z,1017.86
2016-06-06T10:31:26.654Z,1017.81
2016-06-06T10:31:36.685Z,1017.82
2016-06-06T10:31:46.654Z,1017.82
2016-06-06T10:31:56.638Z,1017.84
2016-06-06T10:32:06.654Z,1017.83
2016-06-06T10:32:16.640Z,1017.91
2016-06-06T10:32:26.656Z,1017.87
2016-06-06T10:32:36.640Z,1017.92
2016-06-06T10:32:46.640Z,1017.89
2016-06-06T10:32:56.625Z,1017.89
2016-06-06T10:33:06.625Z,1017.89
2016-06-06T10:33:16.628Z,1017.86
2016-06-06T10:33:26.628Z,1017.81
2016-06-06T10:33:36.612Z,1017.87
2016-06-06T10:33:46.612Z,1017.87
2016-06-06T10:33:56.612Z,1017.89
2016-06-06T10:34:06.471Z,1017.82
2016-06-06T10:34:16.615Z,1017.86
2016-06-06T10:34:26.599Z,1017.79
2016-06-06T10:34:36.599Z,1017.84
2016-06-06T10:34:46.599Z,1017.79
2016-06-06T10:34:56.599Z,1017.82
2016-06-06T10:35:06.599Z,1017.8
2016-06-06T10:35:16.587Z,1017.78
2016-06-06T10:35:26.587Z,1017.82
2016-06-06T10:35:36.587Z,1017.88
2016-06-06T10:35:46.571Z,1017.79
2016-06-06T10:35:56.571Z,1017.86
2016-06-06T10:36:06.571Z,1017.88
2016-06-06T10:36:16.573Z,1017.84
2016-06-06T10:36:26.573Z,1017.82
2016-06-06T10:36:36.573Z,1017.85
2016-06-06T10:36:46.573Z,1017.84
2016-06-06T10:36:56.558Z,1017.84
2016-06-06T10:37:06.558Z,1017.81
2016-06-06T10:37:16.545Z,1017.81
2016-06-06T10:37:26.545Z,1017.79
2016-06-06T10:37:36.545Z,1017.84
2016-06-06T10:37:46.545Z,1017.78
2016-06-06T10:37:56.545Z,1017.77
2016-06-06T10:38:06.545Z,1017.79
2016-06-06T10:38:16.531Z,1017.8
2016-06-06T10:38:26.547Z,1017.79
2016-06-06T10:38:36.531Z,1017.75
2016-06-06T10:38:46.516Z,1017.74
2016-06-06T10:38:56.516Z,1017.74
2016-06-06T10:39:06.516Z,1017.73
2016-06-06T10:39:16.520Z,1017.74
2016-06-06T10:39:26.504Z,1017.75
2016-06-06T10:39:36.504Z,1017.76
2016-06-06T10:39:46.504Z,1017.78
2016-06-06T10:39:56.520Z,1017.74
2016-06-06T10:40:06.348Z,1017.76
2016-06-06T10:40:16.506Z,1017.75
2016-06-06T10:40:26.490Z,1017.76
2016-06-06T10:40:36.490Z,1017.77
2016-06-06T10:40:46.490Z,1017.71
2016-06-06T10:40:56.490Z,1017.74
2016-06-06T10:41:06.490Z,1017.71
2016-06-06T10:41:16.478Z,1017.74
2016-06-06T10:41:26.478Z,1017.73